Reza Mohammadi

Jefe de ojeadores - Esteghlal
3 Dic 2028
Domingo
Continuar

Personalidad

Adaptabilidad (17) Ambición (11) Controversia (14) Lealtad (6) Presión (9) Profesionalismo (1) Deportividad (10) Temperamento (2)

Perfil

Estilo de dirección Democrático
Licencia Continental C
Determinación 6
Gestión de personas 8
Motivación 4
Disciplina 12
Satisfacción laboral
100%
Fatiga
0%
Cargo Jefe de ojeadores
Salario 95.8K p/s
Contrato 14.03.2029

Rendimiento

Comportamiento Bueno
Efectividad del entrenamiento
40%
Desarrollo de jugadores
25%
Prevención de lesiones
40%
Implementación táctica
65%

Eventos recientes

Asistió a una reunión de captación 7d atrás
Recomendó un objetivo de fichaje 7d atrás
Asistió a una reunión de captación 14d atrás
Recomendó un objetivo de fichaje 14d atrás
Asistió a una reunión de captación 21d atrás
Recomendó un objetivo de fichaje 21d atrás
Asistió a una reunión de captación 28d atrás
Recomendó un objetivo de fichaje 28d atrás

Actualmente siguiendo

290
Jugador Club Estado Habilidad Confianza Observado Última observación Último voto
Marcelo Jorquera Sepahan Activo 105 / 96 79% 1 07.08.2028 Aprobar
Álvaro Busso Vélez Activo 118 / 112 40% 1 01.08.2028 -
Bark Abdramane AS PSI Activo 91 / 89 40% 1 01.08.2028 -
Mohammad Mehdi Mohebi Persepolis Perdido 127 / 113 79% 1 31.07.2028 -
Aref Haji Eydi Sepahan Perdido 111 / 114 79% 1 10.07.2028 -
Jan Bürger Northampton Town Activo 126 / 137 40% 2 26.06.2028 -
Josh Nichols Oldham Athletic Activo 126 / 134 40% 12 26.06.2028 -
Mehdi Noorafkan Padideh Activo 91 / 98 40% 1 26.06.2028 -
Honest Ahanor Atalanta Activo 135 / 148 40% 6 12.06.2028 -
Giovanni Leoni Lincoln City Rechazado 143 / 155 40% 2 12.06.2028 Más información
Tyler Fletcher Rotherham United Activo 113 / 112 40% 9 06.06.2028 -
Morteza Torabi Malavan Negociando 100 / 117 40% 1 06.06.2028 -
Bernardo Lima Porto Activo 110 / 122 40% 2 31.05.2028 -
Ibrahim Fullah Charlton Athletic Activo 123 / 135 40% 9 30.05.2028 -
Ryan McAidoo Oldham Athletic Activo 121 / 132 40% 11 30.05.2028 -
Gabriel Mec Feirense Activo 132 / 140 40% 7 29.05.2028 -
Jake Evans Crewe Alexandra Activo 112 / 128 40% 7 28.05.2028 -
Ben Broggio Mansfield Town Activo 113 / 123 40% 7 28.05.2028 -
Leo Pecover Swindon Town Activo 100 / 117 40% 8 28.05.2028 -
Oskar Pietuszewski Estrela da Amadora Activo 130 / 126 40% 5 27.05.2028 -
Alphadjo Cissé Lecce Activo 135 / 131 40% 3 27.05.2028 -
Ryan Kavuma-McQueen Accrington Stanley Activo 117 / 125 40% 10 25.05.2028 -
Kerim Alajbegović Modena Activo 133 / 135 40% 3 24.05.2028 -
Shea Lacey Crystal Palace Activo 137 / 141 40% 3 24.05.2028 -
Jorthy Mokio ADO Den Haag Activo 132 / 139 40% 1 24.05.2028 -
Simone Suppa Virtus Verona Activo 87 / 84 40% 1 21.05.2028 -
Babis Kostoulas Oxford United Activo 142 / 142 40% 7 20.05.2028 -
Eli Junior Kroupi Bournemouth Activo 143 / 160 40% 17 20.05.2028 -
Christos Mouzakitis Hull City Activo 139 / 135 40% 4 19.05.2028 -
Rio Ngumoha Plymouth Argyle Activo 138 / 141 40% 5 19.05.2028 -
Andrea Cogoni Cosenza Activo 110 / 109 40% 1 18.05.2028 -
Luca Williams-Barnett Walsall Activo 123 / 135 40% 8 15.05.2028 -
Igor Tyjon Barrow AFC Activo 118 / 127 40% 10 13.05.2028 -
Fletcher Boyd Accrington Stanley Activo 100 / 104 40% 1 11.05.2028 -
Siyabonga Mabena Bidvest Wits Activo 122 / 129 40% 19 08.05.2028 -
Luca Meirelles Kudrivka Activo 126 / 138 40% 8 05.05.2028 -
Amin Nabizada Exeter City Activo 111 / 116 40% 4 02.05.2028 -
Romelle Donovan Brentford Activo 129 / 139 40% 2 02.05.2028 -
Oscar Schwartau Norwich City Activo 129 / 133 40% 2 30.04.2028 -
Daniel Banjaqui Benfica Activo 127 / 127 40% 1 28.04.2028 -
Gabe Forsyth Colchester United Activo 108 / 108 40% 5 24.04.2028 -
André Miranda Porto Activo 115 / 127 40% 3 23.04.2028 -
Omar Khedr Gillingham Activo 110 / 118 40% 4 20.04.2028 -
Josh Acheampong Everton Activo 139 / 152 40% 4 16.04.2028 -
Henrique Carmo Sochi Activo 123 / 125 40% 2 06.04.2028 -
Trey Nyoni Rotherham United Activo 133 / 148 40% 3 22.03.2028 -
Nana Nuhu WAFA Activo 96 / 110 40% 3 19.03.2028 -
Alejo Antilef Saipa Rechazado 122 / 127 72% 1 17.01.2028 Rechazar
Tiziano Delias Sarmiento Activo 101 / 87 40% 2 01.01.2028 -
Nikita Dovnar Niva Activo 71 / 100 40% 1 01.01.2028 -
Jayden Danns Bradford City Activo 137 / 145 40% 3 30.12.2027 -
Joshua Ajala Walsall Activo 96 / 111 40% 1 30.12.2027 -
Stanley Amon Bayelsa United Activo 93 / 101 40% 3 29.12.2027 -
Facundo Rodríguez Talleres Activo 87 / 111 40% 1 29.12.2027 -
Dylan Cabral Arsenal Activo 112 / 124 40% 11 28.12.2027 -
Artur Kozyrev Volna Activo 93 / 88 40% 2 27.12.2027 -
Maren Kefas Plateau United Activo 90 / 88 40% 12 25.12.2027 -
Luighi Palmeiras Activo 115 / 107 40% 6 25.12.2027 -
Dániel Pintér Inter Miami CF Activo 87 / 111 40% 5 23.12.2027 -
Abolfazl Zadehattar Saipa Activo 115 / 125 40% 1 21.12.2027 -
Luka Andrade Montevideo City Torque Activo 106 / 102 40% 11 19.12.2027 -
Rafael Moreno Atletico Venezuela Activo 118 / 97 40% 7 15.12.2027 -
Julian Hall Real Salt Lake Activo 94 / 98 40% 3 15.12.2027 -
Sindre Walle Egeli Udinese Activo 140 / 143 40% 1 14.12.2027 -
Ruben Ramos LA Galaxy Activo 99 / 93 40% 8 12.12.2027 -
Daniel Johan Skaarud Sandefjord Activo 113 / 122 40% 4 10.12.2027 -
Senny Mayulu Paris Saint-Germain Activo 151 / 143 40% 1 07.12.2027 -
Julián Bragado Morón Activo 84 / 97 40% 2 06.12.2027 -
Joseph Abah Remo Stars Activo 81 / 99 40% 3 06.12.2027 -
Idris Ajiya Nasarawa United Activo 79 / 93 40% 4 04.12.2027 -
Tiago Pucciarelli IF Elfsborg Activo 107 / 87 40% 4 04.12.2027 -
Omar Bautista Gerez Central Córdoba SdE Activo 86 / 84 40% 2 30.11.2027 -
Ramiro Buratti River Plate Activo 85 / 98 40% 1 27.11.2027 -
Jack Wint Sibenik Activo 108 / 95 40% 1 27.11.2027 -
Juan Rodríguez Cerro Largo Activo 86 / 119 40% 2 25.11.2027 -
Amaury Morales Leon Activo 121 / 116 40% 2 23.11.2027 -
Elion Krosa Odd Activo 97 / 106 40% 1 18.11.2027 -
Kevin Filling AIK Activo 105 / 131 40% 1 17.11.2027 -
Yegor Koshkin Pobeda Activo 82 / 87 40% 1 16.11.2027 -
Emiliano Zacca Deportivo Riestra Activo 95 / 97 40% 2 15.11.2027 -
Tobías Pantoja Central Norte Activo 91 / 109 40% 1 15.11.2027 -
Martín Almeida Montevideo City Torque Activo 98 / 101 40% 1 15.11.2027 -
Hassan Beja AFC Leopards Activo 96 / 103 40% 5 12.11.2027 -
Mateus Mané Burnley Activo 138 / 150 40% 1 12.11.2027 -
Luis Yanes Real Cartagena Activo 102 / 92 40% 1 06.11.2027 -
Miloš Luković RC Strasbourg Activo 126 / 135 40% 2 05.11.2027 -
Naphtali Mokoena Bloemfontein Celtic Activo 95 / 123 40% 1 05.11.2027 -
Alex Verón Vélez Activo 124 / 122 40% 2 10.10.2027 -
Nicolás Barros Schelotto Gimnasia La Plata Activo 111 / 143 40% 2 10.10.2027 -
Mateo Peralta Danubio Activo 109 / 130 40% 2 09.10.2027 -
Matias Siltanen Malmo FF Activo 114 / 149 40% 2 09.10.2027 -
Giovanni Baroni Talleres Activo 118 / 115 40% 1 08.10.2027 -
Ben Gannon Doak Charlton Athletic Activo 151 / 161 40% 2 07.10.2027 -
Abubakar Garba Nasarawa United Activo 93 / 93 40% 6 06.10.2027 -
Mustapha Umar Kano Pillars Activo 92 / 82 40% 1 06.10.2027 -
Wisdom Udom Bendel Insurance Activo 89 / 97 40% 1 05.10.2027 -
Joel Ezra Enyimba Activo 89 / 94 40% 2 03.10.2027 -
Emmanuel Ndubueze Shooting Stars Activo 91 / 108 40% 5 02.10.2027 -
Jeremías Merlo Gimnasia La Plata Activo 131 / 129 40% 2 01.10.2027 -
Abdoulaye Allamine Stars Jeunes Talents Activo 76 / 81 40% 1 01.10.2027 -
Alex Amaefula Kun Khalifat Activo 84 / 76 40% 3 29.09.2027 -
Nupe Godstime Bayelsa United Activo 83 / 86 40% 3 29.09.2027 -
Abdulrahman Hamisu Niger Tornadoes Activo 89 / 92 40% 1 28.09.2027 -
Didier Dawson Envigado Activo 108 / 106 40% 1 27.09.2027 -
Matías Arias Vélez Activo 115 / 112 40% 3 18.09.2027 -
Victor Hernandez Santa Fe Activo 114 / 142 40% 1 18.09.2027 -
Chimobi Igwilo Rangers International Activo 83 / 93 40% 1 14.09.2027 -
Lucas Camejo River Plate Activo 86 / 91 40% 1 13.09.2027 -
David Eke Enyimba Activo 85 / 103 40% 1 07.09.2027 -
Wandile Duba ASO Chlef Activo 100 / 91 40% 1 30.08.2027 -
Kamaldeen Essien Liberty Professionals Activo 116 / 123 40% 1 30.08.2027 -
Alejo Dramisino Atlanta Activo 110 / 121 40% 1 24.08.2027 -
Mitchel Bakker Modena Activo 139 / 126 40% 1 17.08.2027 -
Thierry Rendall Correia Venezia Activo 141 / 139 40% 1 16.08.2027 -
Martin Baturina Como Activo 148 / 145 40% 1 16.08.2027 -
Sascha Britschgi AC Milan Activo 125 / 120 40% 1 15.08.2027 -
Pedro de la Vega Columbus Crew Activo 142 / 143 40% 1 10.08.2027 -
Ryoya Morishita Blackburn Rovers Activo 126 / 123 40% 3 09.08.2027 -
Malik Mothersille Stockport County Activo 123 / 116 40% 2 09.08.2027 -
Finn Azaz Southampton Activo 131 / 130 40% 1 09.08.2027 -
Daniel Kyerewaa Reading Activo 126 / 123 40% 2 08.08.2027 -
Callum O'Hare Sheffield United Activo 130 / 137 40% 1 08.08.2027 -
Brooke Norton-Cuffy Hull City Activo 146 / 136 40% 3 07.08.2027 -
Harry Wilson Leeds United Activo 154 / 139 40% 1 07.08.2027 -
Joe Gelhardt Hull City Activo 141 / 139 40% 1 06.08.2027 -
Tatsuhiro Sakamoto Coventry City Activo 126 / 140 40% 1 06.08.2027 -
Max Bird Birmingham Activo 142 / 128 40% 11 05.08.2027 -
Cian Ashford Cardiff City Activo 125 / 133 40% 1 05.08.2027 -
Isaiah Jones Luton Town Activo 124 / 134 40% 1 04.08.2027 -
Giacomo Raspadori Atalanta Activo 147 / 147 40% 1 04.08.2027 -
Samuel Edozie Southampton Activo 136 / 119 40% 3 03.08.2027 -
Ali Ahmed Norwich City Activo 125 / 128 40% 1 03.08.2027 -
Marcus McGuane Huddersfield Town Activo 125 / 132 40% 3 02.08.2027 -
Radinio Balker Huddersfield Town Activo 127 / 120 40% 5 02.08.2027 -
Ethan Williams Peterborough United Activo 119 / 122 40% 2 02.08.2027 -
Hector Kyprianou Watford Activo 123 / 121 40% 2 02.08.2027 -
Stevan Manuel Benfica Activo 97 / 107 40% 1 02.08.2027 -
Harry Clarke Preston Activo 134 / 135 40% 5 01.08.2027 -
Hidemasa Morita Hull City Activo 144 / 154 40% 9 31.07.2027 -
Bosun Lawal Stoke City Activo 132 / 128 40% 4 31.07.2027 -
Max Conway Bolton Wanderers Activo 126 / 115 40% 1 31.07.2027 -
Tyrese Campbell Sheffield United Activo 134 / 131 40% 1 31.07.2027 -
Tomáš Rigo Stoke City Activo 130 / 138 40% 1 31.07.2027 -
Scott Twine Bristol City Activo 125 / 135 40% 1 30.07.2027 -
Shea Charles Southampton Activo 141 / 135 40% 6 29.07.2027 -
Terry Devlin Portsmouth Activo 123 / 114 40% 3 29.07.2027 -
Ronnie Edwards Queens Park Rangers Activo 133 / 124 40% 1 29.07.2027 -
Lloyd Jones Charlton Athletic Activo 131 / 141 40% 1 27.07.2027 -
Jacques Ekomié Wrexham Activo 130 / 125 40% 3 26.07.2027 -
Harrison Burrows Sheffield United Activo 137 / 123 40% 2 26.07.2027 -
João Abreu Porto Activo 96 / 112 40% 1 26.07.2027 -
Calum Agius Crewe Alexandra Activo 94 / 112 40% 1 26.07.2027 -
Dennis Cirkin Queens Park Rangers Activo 135 / 130 40% 8 25.07.2027 -
Ethan Pye Stockport County Activo 126 / 124 40% 5 24.07.2027 -
Derry Murkin Derby County Activo 132 / 131 40% 3 24.07.2027 -
Matt Clarke Derby County Activo 130 / 134 40% 2 24.07.2027 -
Mikey Johnston West Bromwich Albion Activo 129 / 113 40% 1 24.07.2027 -
Jack Diamond Stockport County Activo 117 / 110 40% 1 23.07.2027 -
David Turnbull Cardiff City Activo 126 / 129 40% 1 23.07.2027 -
Luke McNally Bristol City Activo 132 / 128 40% 6 21.07.2027 -
Tariq Lamptey Queens Park Rangers Activo 138 / 125 40% 2 20.07.2027 -
Othmane Maamma Watford Activo 129 / 134 40% 2 20.07.2027 -
Nestory Irankunda Watford Activo 130 / 132 40% 1 20.07.2027 -
Asanele Bonani Chippa United Activo 103 / 84 40% 1 20.07.2027 -
Welington Southampton Activo 142 / 136 40% 5 19.07.2027 -
Andy Rinomhota Reading Activo 120 / 117 40% 4 19.07.2027 -
Chris Mepham West Bromwich Albion Activo 131 / 130 40% 2 18.07.2027 -
Araphat Mohammed Ashanti Gold Activo 102 / 107 40% 1 18.07.2027 -
Will Fish Cardiff City Activo 126 / 131 40% 1 18.07.2027 -
Ben Nelson Leicester City Activo 132 / 130 40% 1 17.07.2027 -
Aidan Morris Middlesbrough Activo 139 / 138 40% 4 15.07.2027 -
Max Johnston Derby County Activo 131 / 124 40% 6 12.07.2027 -
Alfie Gilchrist West Bromwich Albion Activo 125 / 122 40% 1 12.07.2027 -
Jack Currie Oxford United Activo 124 / 121 40% 7 07.07.2027 -
Japhet Tanganga Sheffield United Activo 141 / 135 40% 2 07.07.2027 -
Michael Baidoo Plymouth Argyle Activo 136 / 119 40% 1 06.07.2027 -
Lisandro Tejada San Martín SJ Activo 91 / 77 40% 2 21.06.2027 -
Giovanni Stellato Guidonia Montecelio Activo 84 / 100 40% 1 21.06.2027 -
Lewis Bate Stockport County Activo 130 / 120 40% 2 20.06.2027 -
Alfie Doughty Millwall Activo 124 / 123 40% 3 15.06.2027 -
Sorba Thomas Stoke City Activo 131 / 141 40% 1 31.05.2027 -
Milan van Ewijk Coventry City Activo 126 / 136 40% 3 24.05.2027 -
Toby Collyer West Bromwich Albion Activo 132 / 143 40% 4 22.05.2027 -
Perry Ng Cardiff City Activo 123 / 113 40% 1 20.05.2027 -
Dara O'Shea Ipswich Town Activo 142 / 135 40% 6 19.05.2027 -
Callum Brittain Middlesbrough Activo 128 / 135 40% 4 18.05.2027 -
Habib Diarra Sunderland Activo 139 / 153 40% 4 09.05.2027 -
Lewis Gibson Preston Activo 129 / 128 40% 2 05.05.2027 -
Florentino Luís Ipswich Town Activo 135 / 152 40% 4 03.05.2027 -
Lucas Da Cunha Como Activo 145 / 139 40% 3 03.05.2027 -
Tom Hamer Lincoln City Activo 119 / 103 40% 1 30.04.2027 -
Morgan Billiat SuperSport United Activo 134 / 100 40% 8 19.04.2027 -
Hamza Choudhury Leicester City Activo 129 / 128 40% 1 18.04.2027 -
Pelle Mattsson Norwich City Activo 125 / 133 40% 1 17.04.2027 -
Jacob Greaves Ipswich Town Activo 140 / 134 40% 5 16.04.2027 -
Azor Matusiwa Ipswich Town Activo 136 / 136 40% 4 15.04.2027 -
Oliver Skipp Leicester City Activo 136 / 140 40% 4 14.04.2027 -
Adam Randell Bristol City Activo 130 / 119 40% 2 14.04.2027 -
Brian De Keersmaecker Oxford United Activo 130 / 117 40% 1 14.04.2027 -
Joel Bagan Cardiff City Activo 120 / 110 40% 4 13.04.2027 -
Toti Wolverhampton Activo 129 / 143 40% 1 27.03.2027 -
Connor Ogilvie Grimsby Town Activo 109 / 121 40% 1 27.03.2027 -
Igor Burnley Activo 142 / 141 40% 1 26.03.2027 -
Lewis O'Brien Wrexham Activo 119 / 123 40% 1 25.03.2027 -
Marc Bola Watford Activo 126 / 130 40% 1 19.03.2027 -
Alfie Jones Middlesbrough Activo 130 / 122 40% 1 12.03.2027 -
Deano Van Rooyen SuperSport United Activo 122 / 96 40% 8 04.03.2027 -
Fawaaz Basadien Mamelodi Sundowns Activo 122 / 109 40% 1 02.03.2027 -
Tomáš Souček West Ham United Activo 132 / 140 40% 1 26.02.2027 -
Jordan Lotomba Bloemfontein Celtic Activo 124 / 115 40% 3 20.02.2027 -
Tibor Halilović Tractor Activo 122 / 110 40% 2 18.02.2027 -
Will Hughes Bloemfontein Celtic Activo 135 / 115 40% 3 18.02.2027 -
Kaveh Mohammadi Gostaresh Foulad Activo 126 / 107 40% 1 18.02.2027 -
Teboho Mokoena Mamelodi Sundowns Activo 125 / 127 40% 4 17.02.2027 -
Álvaro Medrán Al-Ettifaq Activo 127 / 115 40% 2 17.02.2027 -
João Cancelo Spartak Moscow Rechazado 144 / 143 40% 4 13.02.2027 Rechazar
Gedson Fernandes Spartak Moscow Activo 139 / 149 40% 1 13.02.2027 -
Leeroy Owusu Hearts of Oak Activo 111 / 109 40% 1 13.02.2027 -
Álex Centelles Levski Activo 138 / 125 40% 3 12.02.2027 -
Igor Postonjski Tractor Activo 128 / 120 40% 1 12.02.2027 -
Son Ludogorets Activo 115 / 135 40% 1 11.02.2027 -
Billy Gilmour Napoli Activo 147 / 152 40% 1 11.02.2027 -
Khuliso Mudau Mamelodi Sundowns Activo 123 / 120 40% 1 09.02.2027 -
Thalente Mbatha Orlando Pirates Activo 126 / 99 40% 1 05.02.2027 -
Milad Zakipour Tractor Activo 105 / 120 40% 2 04.02.2027 -
Aldair Faustino Levski Activo 114 / 131 40% 2 02.02.2027 -
Wilfried Kanga Al-Fateh Activo 126 / 119 40% 1 25.01.2027 -
Mohammad Hosseini Malavan Activo 120 / 128 40% 1 25.01.2027 -
Saeid Pouraliganji Rah Ahan Rechazado 118 / 107 40% 1 11.01.2027 -
Amir Hossein Hosseinzadeh Tractor Activo 124 / 118 40% 4 01.01.2027 -
Bradley Zwane SuperSport United Activo 121 / 127 40% 7 31.12.2026 -
Oston O'runov Persepolis Activo 130 / 122 40% 8 31.12.2026 -
Marquinhos Spartak Moscow Activo 136 / 107 40% 2 31.12.2026 -
Steven Bergwijn Al-Ittihad Activo 146 / 158 40% 3 30.12.2026 -
Milad Yazdani Siah Jamegan Activo 125 / 117 40% 5 28.12.2026 -
Oswin Appollis Orlando Pirates Activo 112 / 136 40% 8 25.12.2026 -
Zoltan Kleinheisler Haladas Activo 95 / 85 40% 2 24.12.2026 -
Thiago Perruisset Boca Juniors Activo 88 / 92 40% 1 24.12.2026 -
Bongani Zungu Ajax Cape Town Activo 130 / 114 40% 2 19.12.2026 -
Armstrong Oko-Flex Levski Activo 116 / 127 40% 1 19.12.2026 -
Marcelo Allende Mamelodi Sundowns Activo 136 / 125 40% 6 18.12.2026 -
Oscar Al-Taawoun Activo 150 / 131 40% 2 18.12.2026 -
Ikenna Nkwazema FC Diarra Activo 73 / 88 40% 1 15.12.2026 -
Manu Morlanes Mallorca Activo 135 / 131 40% 1 15.12.2026 -
Dion Lopy Al-Ittihad Activo 121 / 143 40% 1 15.12.2026 -
Domagoj Drožđek Tractor Activo 126 / 121 40% 5 13.12.2026 -
Petar Stanić Ludogorets Activo 148 / 123 40% 1 11.12.2026 -
Lebogang Manyama SuperSport United Activo 104 / 110 40% 2 04.12.2026 -
Mandla Kekana Ajax Cape Town Activo 108 / 110 40% 1 04.12.2026 -
Marko Grujić Levski Activo 130 / 117 40% 1 04.12.2026 -
Odiljon Hamrobekov Tractor Activo 122 / 113 40% 2 30.11.2026 -
Douglas Augusto Krasnodar Activo 142 / 140 40% 1 30.11.2026 -
Edu Expósito Espanyol Activo 139 / 128 40% 6 25.11.2026 -
Alexandr Chernikov Krasnodar Activo 132 / 153 40% 1 23.11.2026 -
Óscar Al-Diriyah Activo 127 / 129 40% 1 22.11.2026 -
Reda Khadra Qarabag Activo 132 / 149 40% 3 12.11.2026 -
Lucas Souto Defensa y Justicia Activo 121 / 107 40% 2 09.11.2026 -
Jakub Badžgoň MSK Zilina Activo 93 / 109 40% 1 06.11.2026 -
Jens Petter Hauge Bodo/Glimt Activo 131 / 142 40% 3 31.10.2026 -
Mariano Bracamonte Deportivo Riestra Activo 109 / 116 40% 1 30.10.2026 -
Lisandro Musso Central Córdoba SdE Activo 76 / 112 40% 1 20.10.2026 -
Camilo Salamanca Unión de Santa Fe Activo 91 / 94 40% 1 15.10.2026 -
Renato Ardissono San Lorenzo Activo 73 / 99 40% 1 15.10.2026 -
Favour Bala Plateau United Activo 83 / 76 40% 1 13.10.2026 -
Agustín Albrini Independiente Rivadavia Activo 93 / 119 40% 1 13.10.2026 -
Franco Cristaldo Talleres Activo 139 / 108 40% 2 09.10.2026 -
Bernard Tekpetey Ludogorets Activo 117 / 121 40% 1 04.10.2026 -
Felipe Igón Racing Club Activo 79 / 94 40% 1 04.10.2026 -
Biola Sabitu Remo Stars Activo 97 / 107 40% 1 03.10.2026 -
Luis Mateus Atletico Bucaramanga Activo 84 / 101 40% 1 29.09.2026 -
Agustín Ayala Gimnasia La Plata Activo 84 / 66 40% 1 29.09.2026 -
Brian Orosco Godoy Cruz Activo 110 / 110 40% 2 25.09.2026 -
Patrick Maswanganyi Orlando Pirates Activo 111 / 126 40% 1 24.09.2026 -
Imran Oulad Omar Dinamo Batumi Activo 128 / 100 40% 2 20.09.2026 -
Jonathan Levi Ferencvaros Activo 114 / 142 40% 1 19.09.2026 -
Matías Pellegrini Vélez Activo 126 / 137 40% 1 19.09.2026 -
Maxim De Cuyper Brighton Activo 134 / 138 40% 1 17.09.2026 -
James Wright Oxford United Activo 75 / 100 40% 1 17.09.2026 -
Jerónimo Gutiérrez Independiente Rivadavia Activo 81 / 70 40% 1 14.09.2026 -
Franco Yennerich Talleres Activo 88 / 96 40% 1 13.09.2026 -
Pedro Silva Torrejón Gimnasia La Plata Activo 122 / 140 40% 1 10.09.2026 -
Ramiro Ruiz Rodríguez Atlético Tucumán Activo 122 / 106 40% 1 09.09.2026 -
Ignacio Coscio Huracán Activo 87 / 111 40% 1 09.09.2026 -
Ezequiel Zapata Rosario Central Activo 88 / 75 40% 1 07.09.2026 -
Francisco Mongelos Sportivo Luqueno Activo 95 / 96 40% 1 07.09.2026 -
Enzo Gramajo Vélez Activo 72 / 78 40% 1 05.09.2026 -
Keanu Cupido Mamelodi Sundowns Activo 127 / 123 40% 1 31.08.2026 -
Juan Camilo Pérez Carabobo Activo 112 / 134 40% 1 19.08.2026 -
Renzo Garcés Alianza Lima Activo 109 / 105 40% 1 05.08.2026 -
Dwight McNeil Crystal Palace Activo 133 / 138 40% 1 01.08.2026 -